Time;durP1;ratioP1;P1;durP2;ratioP2;P2;SDS_P1;SDS_P2;PMS_P1;PMS_P2;Temp;Humidity;BMP_temperature;BMP_pressure;BME280_temperature;BME280_humidity;BME280_pressure;Samples;Min_cycle;Max_cycle;Signal;HPM_P1;HPM_P2
2022/06/11 00:02:22;;;;;;;15.13;4.65;;;;;;;16.25;91.74;101985.28;5035078;28;20036;-73
2022/06/11 00:04:47;;;;;;;16.80;4.72;;;;;;;16.24;92.09;101983.69;5035062;28;20020;-73
2022/06/11 00:07:18;;;;;;;19.35;4.57;;;;;;;16.24;91.93;101981.06;5035477;28;20055;-73
2022/06/11 00:09:43;;;;;;;16.73;4.45;;;;;;;16.15;92.55;101980.44;5053508;28;20057;-73
2022/06/11 00:12:11;;;;;;;16.17;5.38;;;;;;;16.15;93.07;101984.84;5053282;28;20167;-73
2022/06/11 00:14:37;;;;;;;13.30;5.28;;;;;;;16.05;93.86;101985.19;5035683;28;20381;-74
2022/06/11 00:17:05;;;;;;;17.73;5.47;;;;;;;15.83;95.04;101975.88;5035485;28;20025;-73
2022/06/11 00:19:32;;;;;;;16.90;5.90;;;;;;;15.88;95.66;101984.75;5053352;28;20091;-73
2022/06/11 00:21:57;;;;;;;11.15;5.70;;;;;;;15.84;96.17;101987.91;5035592;28;20025;-75
2022/06/11 00:24:25;;;;;;;14.68;6.28;;;;;;;15.83;96.03;101986.31;5053145;28;20025;-73
2022/06/11 00:26:52;;;;;;;17.95;6.43;;;;;;;15.82;96.82;101982.06;5035431;28;20082;-74
2022/06/11 00:29:20;;;;;;;12.13;6.65;;;;;;;15.75;97.19;101982.84;5034976;28;20138;-73
2022/06/11 00:31:46;;;;;;;14.55;7.05;;;;;;;15.74;97.74;101985.66;5053098;28;20500;-73
2022/06/11 00:34:12;;;;;;;16.25;7.03;;;;;;;15.72;97.72;101982.44;5035340;28;20041;-73
2022/06/11 00:36:38;;;;;;;14.20;6.55;;;;;;;15.73;97.30;101976.22;5052864;28;20029;-73
2022/06/11 00:39:06;;;;;;;17.52;6.50;;;;;;;15.72;97.29;101978.03;5054866;28;20062;-73
2022/06/11 00:41:35;;;;;;;13.18;6.35;;;;;;;15.67;97.41;101975.16;5057453;28;20028;-73
2022/06/11 00:44:01;;;;;;;11.52;6.47;;;;;;;15.71;97.29;101973.81;5038899;28;20524;-73
2022/06/11 00:46:57;;;;;;;18.45;6.50;;;;;;;15.63;97.20;101976.53;5057251;28;20056;-74
2022/06/11 00:49:28;;;;;;;15.73;5.88;;;;;;;15.61;97.17;101965.50;5038906;28;20028;-75
2022/06/11 00:52:02;;;;;;;11.43;5.63;;;;;;;15.62;96.91;101976.72;5038560;28;20492;-73
2022/06/11 00:54:30;;;;;;;14.23;5.43;;;;;;;15.61;96.81;101969.91;5039061;28;20028;-73
2022/06/11 00:56:57;;;;;;;11.55;4.88;;;;;;;15.51;96.49;101962.44;5038759;28;20029;-72
2022/06/11 00:59:33;;;;;;;13.98;6.20;;;;;;;15.52;96.47;101971.84;5038678;28;20025;-74
2022/06/11 01:01:59;;;;;;;10.65;4.45;;;;;;;15.49;96.39;101962.63;5056993;28;20099;-74
2022/06/11 01:04:53;;;;;;;11.80;4.40;;;;;;;15.61;95.40;101964.69;5038891;28;20044;-74
2022/06/11 01:08:00;;;;;;;10.55;4.18;;;;;;;15.56;94.80;101958.28;5056542;28;20491;-73
2022/06/11 01:10:34;;;;;;;10.35;3.67;;;;;;;15.58;94.44;101958.06;5038538;28;20539;-74
2022/06/11 01:13:30;;;;;;;11.38;4.00;;;;;;;15.60;94.18;101952.69;5056636;28;20025;-74
2022/06/11 01:16:01;;;;;;;9.10;3.83;;;;;;;15.63;93.79;101960.91;5038688;28;20017;-75
2022/06/11 01:18:40;;;;;;;9.68;3.72;;;;;;;15.61;93.73;101960.28;5038214;28;20389;-74
2022/06/11 01:21:11;;;;;;;8.70;3.58;;;;;;;15.61;93.50;101959.47;5056153;28;20029;-76
2022/06/11 01:24:16;;;;;;;6.72;3.53;;;;;;;15.61;93.80;101959.47;5055975;28;20485;-75
2022/06/11 01:26:57;;;;;;;7.97;3.42;;;;;;;15.60;93.74;101953.47;5056244;28;20040;-73
2022/06/11 01:29:46;;;;;;;9.82;3.45;;;;;;;15.57;94.25;101959.88;5056129;28;20025;-73
2022/06/11 01:32:33;;;;;;;6.55;3.33;;;;;;;15.60;94.24;101965.69;5027350;28;20048;-74
2022/06/11 01:35:12;;;;;;;8.38;3.60;;;;;;;15.66;93.82;101967.53;5038359;28;20017;-74
2022/06/11 01:37:54;;;;;;;8.25;3.67;;;;;;;15.58;94.16;101973.69;5056179;28;20374;-73
2022/06/11 01:40:29;;;;;;;14.00;3.92;;;;;;;15.56;94.08;101966.09;5038354;28;20025;-73
2022/06/11 01:43:04;;;;;;;7.72;3.60;;;;;;;15.47;94.40;101962.00;5055953;28;20025;-73
2022/06/11 01:45:34;;;;;;;8.35;4.00;;;;;;;15.44;94.88;101964.19;5055693;28;20040;-73
2022/06/11 01:48:01;;;;;;;5.75;3.28;;;;;;;15.41;94.84;101964.56;5055876;28;20557;-72
2022/06/11 01:50:30;;;;;;;8.95;3.53;;;;;;;15.43;94.69;101962.59;5054612;28;20028;-73
2022/06/11 01:53:17;;;;;;;7.18;3.67;;;;;;;15.46;94.40;101962.19;5037897;28;20032;-73
2022/06/11 01:56:13;;;;;;;6.28;3.22;;;;;;;15.31;95.26;101959.69;5037611;28;20025;-72
2022/06/11 01:58:45;;;;;;;9.75;3.60;;;;;;;15.27;95.94;101956.63;5037700;28;20036;-72
2022/06/11 02:01:34;;;;;;;7.32;3.53;;;;;;;15.24;95.55;101945.81;5055517;28;20036;-72
2022/06/11 02:04:05;;;;;;;7.72;3.53;;;;;;;15.25;95.95;101955.25;5037886;28;20087;-73
2022/06/11 02:06:45;;;;;;;8.80;3.33;;;;;;;15.21;95.19;101949.59;5037438;28;20048;-73
2022/06/11 02:09:30;;;;;;;7.20;3.20;;;;;;;15.19;95.66;101953.38;5055281;28;20175;-73
2022/06/11 02:12:06;;;;;;;7.75;3.33;;;;;;;15.11;95.92;101957.75;5055115;28;20063;-73
2022/06/11 02:14:41;;;;;;;9.27;3.22;;;;;;;15.10;95.54;101956.13;5055224;28;20036;-72
2022/06/11 02:17:18;;;;;;;11.82;3.63;;;;;;;15.09;95.60;101951.91;5055271;28;20024;-71
2022/06/11 02:19:50;;;;;;;10.05;3.28;;;;;;;15.11;94.61;101967.34;5037568;28;20073;-71
2022/06/11 02:22:21;;;;;;;7.93;2.88;;;;;;;15.09;94.66;101966.72;5055440;28;20025;-72
2022/06/11 02:24:51;;;;;;;11.65;3.08;;;;;;;15.22;93.67;101972.06;5054907;28;20067;-73
2022/06/11 02:27:24;;;;;;;13.00;3.05;;;;;;;15.21;93.48;101964.41;5054789;28;20025;-73
2022/06/11 02:29:52;;;;;;;9.38;2.97;;;;;;;15.17;93.33;101964.00;5037080;28;20024;-73
2022/06/11 02:32:20;;;;;;;9.52;2.63;;;;;;;15.16;92.98;101967.56;5054564;28;20124;-72
2022/06/11 02:34:53;;;;;;;9.10;2.55;;;;;;;15.11;93.30;101967.34;5055268;28;20033;-72
2022/06/11 02:37:27;;;;;;;11.63;2.45;;;;;;;15.09;93.50;101969.31;5037270;28;20028;-72
2022/06/11 02:39:56;;;;;;;7.57;2.80;;;;;;;15.07;92.92;101968.69;5036978;28;20108;-72
2022/06/11 02:42:24;;;;;;;7.38;2.33;;;;;;;15.08;92.88;101975.53;5036741;28;20017;-72
2022/06/11 02:44:50;;;;;;;9.88;2.70;;;;;;;15.15;92.68;101976.38;5054772;28;20025;-72
2022/06/11 02:47:18;;;;;;;12.38;2.67;;;;;;;15.03;92.09;101981.28;5054779;28;20020;-73
2022/06/11 02:49:44;;;;;;;11.23;2.42;;;;;;;15.05;91.38;101983.72;5036951;28;20082;-72
2022/06/11 02:52:15;;;;;;;12.30;2.60;;;;;;;15.12;91.09;101989.78;5036674;28;20477;-72
2022/06/11 02:54:43;;;;;;;9.32;2.20;;;;;;;15.07;91.18;101989.53;5054508;28;20086;-72
2022/06/11 02:57:11;;;;;;;7.90;2.67;;;;;;;15.06;90.60;101996.53;5036329;28;20027;-72
2022/06/11 02:59:37;;;;;;;9.80;2.72;;;;;;;15.10;89.25;101986.53;5054615;28;20510;-73
2022/06/11 03:02:02;;;;;;;10.80;2.78;;;;;;;15.02;89.32;101986.69;5053758;28;20025;-72
2022/06/11 03:04:30;;;;;;;15.75;3.00;;;;;;;15.08;88.23;101991.16;5053808;28;20028;-73
2022/06/11 03:06:55;;;;;;;16.00;3.15;;;;;;;15.02;87.84;101987.50;5054478;28;20025;-72
2022/06/11 03:09:24;;;;;;;13.52;2.80;;;;;;;15.03;87.62;101993.50;5036199;28;20116;-72
2022/06/11 03:11:50;;;;;;;16.35;2.60;;;;;;;14.92;88.15;101992.19;5054246;28;20040;-72
2022/06/11 03:14:16;;;;;;;15.98;2.85;;;;;;;15.02;87.00;101997.91;5036097;28;20056;-73
2022/06/11 03:16:42;;;;;;;14.63;2.88;;;;;;;15.06;86.90;102009.56;5054303;28;20029;-72
2022/06/11 03:19:09;;;;;;;17.65;2.92;;;;;;;15.02;87.01;102000.53;5054174;28;20076;-72
2022/06/11 03:21:35;;;;;;;14.02;2.72;;;;;;;15.00;86.93;102006.91;5054031;28;20064;-72
2022/06/11 03:24:01;;;;;;;10.90;2.60;;;;;;;15.00;87.30;102006.91;5036304;28;20029;-72
2022/06/11 03:26:27;;;;;;;14.27;2.72;;;;;;;15.01;87.15;102006.69;5036271;28;20021;-74
2022/06/11 03:28:54;;;;;;;16.98;3.33;;;;;;;15.07;87.21;102005.16;5035851;28;20113;-73
2022/06/11 03:31:19;;;;;;;13.82;2.75;;;;;;;14.97;88.02;102017.69;5036143;28;20049;-72
2022/06/11 03:33:45;;;;;;;14.80;2.58;;;;;;;14.94;88.11;102008.44;5053396;28;20380;-72
2022/06/11 03:36:12;;;;;;;11.63;2.78;;;;;;;14.96;88.29;102013.44;5053936;28;20028;-72
2022/06/11 03:38:40;;;;;;;18.00;3.10;;;;;;;15.06;87.83;102017.38;5035767;28;20021;-72
2022/06/11 03:41:06;;;;;;;11.98;2.50;;;;;;;14.97;87.93;102023.69;5053995;28;20388;-72
2022/06/11 03:43:32;;;;;;;13.48;3.00;;;;;;;14.93;88.65;102032.84;5036112;28;20060;-73
2022/06/11 03:45:58;;;;;;;13.45;2.72;;;;;;;15.03;88.31;102027.34;5053816;28;20495;-72
2022/06/11 03:48:24;;;;;;;14.95;2.88;;;;;;;14.99;88.02;102037.34;5036035;28;20114;-73
2022/06/11 03:50:50;;;;;;;18.08;3.35;;;;;;;14.95;87.78;102038.69;5035981;28;20021;-72
2022/06/11 03:53:16;;;;;;;16.17;2.40;;;;;;;14.95;88.47;102035.28;5035749;28;20029;-72
2022/06/11 03:55:43;;;;;;;17.60;3.15;;;;;;;14.97;88.13;102034.09;5053960;28;20495;-72
2022/06/11 03:58:09;;;;;;;13.95;2.60;;;;;;;15.03;87.69;102048.19;5054368;28;20020;-73
2022/06/11 04:03:20;;;;;;;19.98;3.15;;;;;;;15.07;86.22;102039.78;5061027;28;20071;-76
2022/06/11 04:05:47;;;;;;;16.33;3.03;;;;;;;15.23;85.99;102041.34;5041790;28;20033;-75
2022/06/11 04:08:14;;;;;;;21.67;3.08;;;;;;;15.25;85.35;102052.41;5059896;28;20021;-78
2022/06/11 04:10:41;;;;;;;16.58;3.17;;;;;;;15.29;85.24;102051.03;5060120;28;20403;-79
2022/06/11 04:13:08;;;;;;;14.52;3.00;;;;;;;15.16;85.47;102056.09;5043169;28;20017;-77
2022/06/11 04:15:34;;;;;;;18.98;2.90;;;;;;;15.16;85.67;102061.31;5064911;28;20021;-77
2022/06/11 04:18:01;;;;;;;15.55;3.15;;;;;;;15.19;85.29;102055.75;5047584;28;20043;-78
2022/06/11 04:20:27;;;;;;;15.45;2.67;;;;;;;15.26;85.02;102054.00;5062799;28;20036;-76
2022/06/11 04:22:52;;;;;;;19.45;3.15;;;;;;;15.29;85.55;102061.44;5040875;28;20092;-74
2022/06/11 04:25:18;;;;;;;18.42;3.03;;;;;;;15.37;84.37;102067.53;5058499;28;20457;-73
2022/06/11 04:27:44;;;;;;;19.48;3.25;;;;;;;15.33;84.68;102065.28;5040385;28;20481;-73
2022/06/11 04:30:13;;;;;;;18.50;2.95;;;;;;;15.38;84.82;102064.72;5040121;28;20534;-72
2022/06/11 04:32:38;;;;;;;19.45;3.70;;;;;;;15.23;84.97;102064.00;5057143;28;20086;-73
2022/06/11 04:35:04;;;;;;;24.27;3.90;;;;;;;15.29;84.91;102064.03;5057889;28;20057;-73
2022/06/11 04:37:31;;;;;;;19.92;3.10;;;;;;;15.41;84.41;102069.56;5058283;28;20067;-72
2022/06/11 04:39:58;;;;;;;20.67;3.90;;;;;;;15.54;83.96;102074.88;5039671;28;20024;-74
2022/06/11 04:42:24;;;;;;;17.83;3.83;;;;;;;15.61;83.55;102074.13;5057765;28;20033;-72
2022/06/11 04:44:51;;;;;;;20.90;3.10;;;;;;;15.67;83.04;102083.78;5058592;28;20027;-73
2022/06/11 04:47:21;;;;;;;18.13;3.25;;;;;;;15.62;83.35;102084.34;5039593;28;20061;-72
2022/06/11 04:49:50;;;;;;;16.15;2.90;;;;;;;15.60;83.27;102090.75;5057181;28;20020;-72
2022/06/11 04:52:16;;;;;;;14.20;2.72;;;;;;;15.67;83.08;102084.59;5056874;28;20025;-73
2022/06/11 04:54:42;;;;;;;22.85;3.88;;;;;;;15.76;83.26;102093.91;5057357;28;20090;-72
2022/06/11 04:57:07;;;;;;;23.80;4.05;;;;;;;15.76;83.17;102095.72;5057135;28;20534;-73
2022/06/11 04:59:33;;;;;;;19.45;3.20;;;;;;;15.84;82.39;102094.78;5057000;28;20033;-72
2022/06/11 05:01:59;;;;;;;22.45;3.67;;;;;;;15.94;82.84;102103.06;5056802;28;20392;-72
2022/06/11 05:04:25;;;;;;;21.52;3.53;;;;;;;15.95;82.52;102102.06;5057197;28;20028;-72
2022/06/11 05:06:51;;;;;;;21.45;3.88;;;;;;;16.16;81.76;102103.81;5056848;28;20025;-72
2022/06/11 05:09:19;;;;;;;21.95;4.28;;;;;;;16.07;82.43;102097.13;5056111;28;20091;-72
2022/06/11 05:11:45;;;;;;;21.48;3.60;;;;;;;16.29;81.51;102093.47;5056552;28;20107;-79
2022/06/11 05:14:11;;;;;;;26.38;3.75;;;;;;;16.32;80.93;102095.69;5055988;28;20495;-71
2022/06/11 05:16:37;;;;;;;23.02;3.33;;;;;;;16.29;81.67;102103.09;5038764;28;20025;-73
2022/06/11 05:19:04;;;;;;;21.30;3.35;;;;;;;16.43;81.46;102102.16;5038727;28;20060;-73
2022/06/11 05:21:29;;;;;;;18.65;4.18;;;;;;;16.41;80.78;102096.31;5056204;28;20033;-72
2022/06/11 05:23:54;;;;;;;21.60;3.97;;;;;;;16.44;80.92;102093.31;5038300;28;20029;-72
2022/06/11 05:26:28;;;;;;;24.70;3.22;;;;;;;16.44;81.02;102095.94;5037739;28;20112;-72
2022/06/11 05:28:53;;;;;;;20.55;3.60;;;;;;;16.46;81.39;102107.00;5056144;28;20029;-74
2022/06/11 05:31:19;;;;;;;20.85;3.70;;;;;;;17.04;79.66;102104.00;5038245;28;20049;-72
2022/06/11 05:33:45;;;;;;;27.33;4.53;;;;;;;18.99;71.98;102105.16;5038551;28;20053;-72
2022/06/11 05:36:13;;;;;;;20.25;3.75;;;;;;;21.93;61.59;102100.69;5038506;28;20025;-72
2022/06/11 05:38:39;;;;;;;22.00;3.92;;;;;;;23.75;53.76;102100.78;5056164;28;20044;-73
2022/06/11 05:41:05;;;;;;;20.75;4.13;;;;;;;25.15;50.23;102108.94;5056128;28;20025;-72
2022/06/11 05:43:30;;;;;;;23.27;4.10;;;;;;;25.38;48.81;102117.56;5055664;28;20017;-72
2022/06/11 05:46:01;;;;;;;19.85;4.43;;;;;;;23.10;53.81;102112.66;5055885;28;20484;-73
2022/06/11 05:48:34;;;;;;;20.42;4.10;;;;;;;25.51;47.81;102117.13;5055604;28;20028;-73
2022/06/11 05:51:00;;;;;;;24.27;4.72;;;;;;;26.01;47.16;102109.72;5055694;28;20108;-73
2022/06/11 05:53:28;;;;;;;20.58;4.18;;;;;;;25.96;46.23;102115.81;5055160;28;20512;-73
2022/06/11 05:55:57;;;;;;;23.65;4.68;;;;;;;26.26;46.26;102116.97;5038693;28;20033;-72
2022/06/11 05:58:27;;;;;;;22.45;4.30;;;;;;;26.32;45.54;102111.44;5056354;28;20024;-73
2022/06/11 06:00:53;;;;;;;24.70;4.72;;;;;;;26.47;45.06;102107.22;5037553;28;20029;-73
2022/06/11 06:03:18;;;;;;;20.02;4.28;;;;;;;28.14;41.62;102120.66;5055683;28;20021;-73
2022/06/11 06:05:43;;;;;;;20.02;4.43;;;;;;;27.72;42.61;102118.41;5055124;28;20017;-73
2022/06/11 06:08:09;;;;;;;21.40;4.40;;;;;;;27.26;43.59;102131.75;5055328;28;20032;-73
2022/06/11 06:10:34;;;;;;;27.85;4.63;;;;;;;27.78;41.46;102120.75;5055203;28;20024;-73
2022/06/11 06:13:00;;;;;;;23.00;4.32;;;;;;;28.56;40.40;102122.03;5037018;28;20388;-72
2022/06/11 06:15:27;;;;;;;26.35;4.65;;;;;;;26.68;44.08;102122.16;5055204;28;20357;-72
2022/06/11 06:17:53;;;;;;;15.80;3.97;;;;;;;26.61;44.25;102128.75;5055062;28;20084;-73
2022/06/11 06:20:21;;;;;;;20.60;4.38;;;;;;;27.68;41.59;102132.22;5055434;28;20044;-72
2022/06/11 06:22:47;;;;;;;23.88;4.32;;;;;;;25.93;44.84;102126.94;5037414;28;20385;-75
2022/06/11 06:25:15;;;;;;;22.00;4.45;;;;;;;28.18;40.92;102129.66;5055846;28;20025;-74
2022/06/11 06:27:41;;;;;;;17.98;3.85;;;;;;;26.36;43.88;102132.94;5037265;28;20475;-74
2022/06/11 06:30:07;;;;;;;21.42;4.40;;;;;;;28.44;41.10;102129.56;5054982;28;20029;-73
2022/06/11 06:32:32;;;;;;;26.00;4.75;;;;;;;25.71;45.12;102123.59;5054606;28;20465;-74
2022/06/11 06:34:58;;;;;;;20.17;4.28;;;;;;;26.28;43.58;102133.44;5037357;28;20112;-74
2022/06/11 06:37:23;;;;;;;19.20;3.90;;;;;;;25.03;47.06;102126.81;5036649;28;20397;-74
2022/06/11 06:39:48;;;;;;;21.02;4.22;;;;;;;23.82;50.63;102139.16;5054856;28;20029;-75
2022/06/11 06:42:14;;;;;;;23.33;4.30;;;;;;;22.60;53.40;102137.06;5037194;28;20067;-74
2022/06/11 06:44:39;;;;;;;22.63;4.32;;;;;;;22.03;54.56;102141.16;5054768;28;20033;-72
2022/06/11 06:47:05;;;;;;;28.15;4.40;;;;;;;21.89;55.14;102150.31;5054695;28;20029;-72
2022/06/11 06:49:30;;;;;;;22.35;4.25;;;;;;;22.20;53.84;102137.84;5054537;28;20021;-71
2022/06/11 06:51:55;;;;;;;22.85;4.50;;;;;;;21.70;55.09;102148.84;5055613;28;20483;-73
2022/06/11 06:54:21;;;;;;;21.23;4.43;;;;;;;21.95;54.92;102156.50;5055505;28;20036;-73
2022/06/11 06:56:47;;;;;;;19.58;3.63;;;;;;;22.07;54.72;102149.41;5054476;28;20422;-74
2022/06/11 06:59:12;;;;;;;21.42;4.63;;;;;;;22.22;55.56;102154.22;5037026;28;20017;-71
2022/06/11 07:01:38;;;;;;;27.00;4.50;;;;;;;22.23;55.24;102147.91;5054499;28;20013;-72
2022/06/11 07:04:04;;;;;;;21.70;4.18;;;;;;;22.09;54.42;102152.59;5035993;28;20032;-74
2022/06/11 07:06:33;;;;;;;25.13;4.65;;;;;;;22.62;54.19;102156.88;5036024;28;20092;-72
2022/06/11 07:09:05;;;;;;;17.67;4.15;;;;;;;22.65;53.81;102159.03;5054097;28;20017;-73
2022/06/11 07:11:30;;;;;;;19.73;3.85;;;;;;;22.39;53.15;102154.31;5036151;28;20490;-72
2022/06/11 07:13:56;;;;;;;25.38;4.20;;;;;;;22.16;53.48;102160.38;5036393;28;20021;-72
2022/06/11 07:16:31;;;;;;;23.60;3.92;;;;;;;22.41;52.35;102153.03;5036201;28;20433;-71
2022/06/11 07:19:01;;;;;;;18.65;3.80;;;;;;;22.15;51.49;102158.75;5035829;28;20082;-72
2022/06/11 07:21:33;;;;;;;16.50;3.65;;;;;;;22.62;51.66;102154.25;5054191;28;20078;-73
2022/06/11 07:24:11;;;;;;;13.40;3.00;;;;;;;22.26;51.18;102157.97;5036480;28;20027;-72
2022/06/11 07:26:41;;;;;;;16.73;3.63;;;;;;;22.46;49.42;102147.84;5036068;28;20040;-72
2022/06/11 07:29:13;;;;;;;17.40;3.80;;;;;;;22.74;49.85;102152.34;5053948;28;20033;-73
2022/06/11 07:31:40;;;;;;;17.05;3.65;;;;;;;23.10;48.31;102157.50;5036159;28;20044;-73
2022/06/11 07:34:06;;;;;;;18.15;3.83;;;;;;;23.15;45.71;102157.59;5054191;28;20047;-72
2022/06/11 07:36:31;;;;;;;16.20;3.20;;;;;;;23.15;46.98;102157.59;5053952;28;20024;-73
2022/06/11 07:38:56;;;;;;;14.52;3.50;;;;;;;22.94;45.70;102157.19;5053322;28;20460;-73
2022/06/11 07:41:22;;;;;;;13.48;2.90;;;;;;;23.10;46.13;102162.75;5052699;28;20039;-72
2022/06/11 07:43:47;;;;;;;17.48;3.03;;;;;;;23.27;45.45;102154.88;5053506;28;20453;-72
2022/06/11 07:46:12;;;;;;;13.98;3.25;;;;;;;23.25;46.00;102149.03;5034848;28;20029;-72
2022/06/11 07:48:37;;;;;;;17.63;3.50;;;;;;;22.80;46.52;102149.81;5053381;28;20021;-72
2022/06/11 07:51:04;;;;;;;16.85;3.22;;;;;;;23.13;45.04;102159.66;5035689;28;20031;-72
2022/06/11 07:53:30;;;;;;;13.18;2.80;;;;;;;22.93;46.34;102160.88;5035868;28;20485;-72
2022/06/11 07:55:55;;;;;;;17.23;3.30;;;;;;;23.17;45.37;102166.88;5036531;28;20077;-71
2022/06/11 07:58:25;;;;;;;14.50;3.15;;;;;;;23.35;46.12;102163.19;5053452;28;20029;-71
2022/06/11 08:00:52;;;;;;;14.48;3.03;;;;;;;23.14;44.06;102169.19;5035234;28;20021;-71
2022/06/11 08:03:19;;;;;;;11.82;2.95;;;;;;;23.35;41.96;102159.75;5053799;28;20103;-72
2022/06/11 08:05:46;;;;;;;17.13;3.10;;;;;;;23.43;42.09;102165.44;5053289;28;20032;-72
2022/06/11 08:08:12;;;;;;;14.07;3.03;;;;;;;23.90;41.77;102172.25;5053650;28;20021;-72
2022/06/11 08:10:39;;;;;;;21.88;3.40;;;;;;;23.91;43.30;102173.03;5053349;28;20464;-72
2022/06/11 08:13:05;;;;;;;13.15;3.03;;;;;;;24.07;41.69;102173.00;5053599;28;20459;-71
2022/06/11 08:15:31;;;;;;;14.90;3.15;;;;;;;23.65;42.57;102178.72;5035550;28;20021;-71
2022/06/11 08:17:56;;;;;;;14.02;2.97;;;;;;;23.55;41.17;102170.63;5053558;28;20043;-73
2022/06/11 08:20:28;;;;;;;12.10;3.03;;;;;;;23.51;41.73;102171.38;5053372;28;20350;-72
2022/06/11 08:23:04;;;;;;;12.18;2.90;;;;;;;23.70;42.80;102170.09;5052170;28;20021;-72
2022/06/11 08:25:30;;;;;;;13.43;2.92;;;;;;;23.10;42.00;102174.13;5052196;28;20420;-72
2022/06/11 08:27:56;;;;;;;18.30;3.70;;;;;;;23.20;41.35;102171.66;5052083;28;20025;-72
2022/06/11 08:30:23;;;;;;;14.98;3.15;;;;;;;23.64;43.01;102178.94;5034076;28;20440;-72
2022/06/11 08:32:49;;;;;;;13.32;2.83;;;;;;;24.01;41.32;102181.09;5033800;28;20049;-73
2022/06/11 08:35:18;;;;;;;16.52;2.90;;;;;;;23.78;40.82;102185.53;5052181;28;20365;-70
2022/06/11 08:37:43;;;;;;;13.02;3.03;;;;;;;23.70;41.32;102185.09;5052551;28;20103;-73
2022/06/11 08:40:19;;;;;;;13.70;2.80;;;;;;;24.18;41.38;102178.44;5035275;28;20110;-72
2022/06/11 08:42:58;;;;;;;10.07;2.83;;;;;;;24.06;39.36;102178.53;5052861;28;20025;-72
2022/06/11 08:45:34;;;;;;;11.80;3.00;;;;;;;24.37;39.40;102187.66;5035388;28;20515;-71
2022/06/11 08:48:10;;;;;;;13.02;3.03;;;;;;;23.80;40.10;102183.47;5053215;28;20028;-73
2022/06/11 08:50:42;;;;;;;13.52;3.42;;;;;;;24.32;40.58;102182.31;5053486;28;20032;-71
2022/06/11 08:53:07;;;;;;;15.57;2.93;;;;;;;24.21;41.39;102183.22;5053248;28;20021;-71
2022/06/11 08:55:36;;;;;;;13.63;3.22;;;;;;;24.50;39.70;102174.09;5035598;28;20123;-72
2022/06/11 08:58:19;;;;;;;13.88;3.05;;;;;;;24.33;40.13;102182.06;5035331;28;20017;-72
2022/06/11 09:01:04;;;;;;;13.40;2.70;;;;;;;24.60;41.14;102176.06;5037512;28;20025;-72
2022/06/11 09:03:45;;;;;;;11.73;2.75;;;;;;;24.89;39.99;102176.66;5038793;28;20071;-71
2022/06/11 09:06:43;;;;;;;13.00;3.20;;;;;;;25.16;40.25;102183.78;5056790;28;20036;-72
2022/06/11 09:09:27;;;;;;;10.32;2.75;;;;;;;25.44;38.15;102180.84;5038640;28;20052;-72
2022/06/11 09:12:15;;;;;;;12.65;3.03;;;;;;;25.13;39.92;102169.19;5056375;28;20025;-72
2022/06/11 09:15:18;;;;;;;15.32;2.88;;;;;;;25.37;38.52;102179.47;5038640;28;20031;-73
2022/06/11 09:18:16;;;;;;;12.20;2.72;;;;;;;25.50;38.45;102173.75;5056713;28;20064;-73
2022/06/11 09:20:56;;;;;;;10.48;2.75;;;;;;;25.62;39.65;102173.56;5056482;28;20549;-73
2022/06/11 09:23:38;;;;;;;11.48;2.70;;;;;;;24.81;38.69;102171.78;5056172;28;20028;-73
2022/06/11 09:26:15;;;;;;;11.20;2.83;;;;;;;24.29;39.75;102183.59;5056570;28;20102;-73
2022/06/11 09:28:49;;;;;;;13.23;3.25;;;;;;;23.64;40.85;102189.50;5038334;28;20108;-73
2022/06/11 09:31:27;;;;;;;17.63;2.90;;;;;;;24.61;42.13;102175.03;5056723;28;20087;-73
2022/06/11 09:34:15;;;;;;;16.63;3.17;;;;;;;25.17;38.09;102175.59;5056804;28;20029;-73
2022/06/11 09:37:07;;;;;;;13.13;2.70;;;;;;;25.10;39.52;102174.19;5039075;28;20116;-73
2022/06/11 09:39:55;;;;;;;13.85;3.28;;;;;;;25.30;38.69;102179.69;5043692;28;20472;-73
2022/06/11 09:42:27;;;;;;;13.25;2.92;;;;;;;25.61;38.00;102172.00;5039127;28;20032;-73
2022/06/11 09:45:04;;;;;;;12.93;3.00;;;;;;;25.67;39.62;102174.41;5057720;28;20107;-73
2022/06/11 09:47:59;;;;;;;11.23;2.92;;;;;;;25.24;39.65;102180.69;5055996;28;20033;-73
2022/06/11 09:50:27;;;;;;;17.02;3.58;;;;;;;25.69;40.81;102187.38;5038604;28;20111;-73
2022/06/11 09:53:12;;;;;;;11.52;2.90;;;;;;;26.32;38.83;102187.47;5056344;28;20124;-74
2022/06/11 09:55:55;;;;;;;15.20;3.30;;;;;;;25.46;39.08;102179.78;5040214;28;20060;-73
2022/06/11 09:58:50;;;;;;;12.15;2.95;;;;;;;25.80;38.51;102182.94;5056252;28;20025;-74
2022/06/11 10:01:23;;;;;;;12.23;3.03;;;;;;;26.00;38.32;102191.03;5056712;28;20112;-73
2022/06/11 10:03:53;;;;;;;17.13;3.22;;;;;;;25.79;39.66;102182.16;5038671;28;20032;-73
2022/06/11 10:06:35;;;;;;;17.67;3.40;;;;;;;25.97;36.60;102186.25;5057988;28;20088;-73
2022/06/11 10:09:04;;;;;;;10.32;2.83;;;;;;;25.58;37.54;102181.22;5037876;28;20021;-74
2022/06/11 10:11:30;;;;;;;13.98;3.20;;;;;;;25.41;39.69;102186.66;5054882;28;20032;-74
2022/06/11 10:14:28;;;;;;;18.60;3.28;;;;;;;25.81;38.99;102195.16;5037757;28;20025;-74
2022/06/11 10:17:02;;;;;;;15.90;3.60;;;;;;;26.04;38.00;102188.69;5037309;28;20105;-74
2022/06/11 10:19:52;;;;;;;15.57;3.70;;;;;;;25.85;38.71;102189.09;5055116;28;20523;-73
2022/06/11 10:22:26;;;;;;;10.25;2.97;;;;;;;25.82;39.07;102194.09;5037721;28;20357;-73
2022/06/11 10:25:15;;;;;;;15.20;3.30;;;;;;;26.31;37.58;102191.19;5037478;28;20024;-72
2022/06/11 10:27:47;;;;;;;13.45;3.25;;;;;;;26.72;38.10;102200.09;5055330;28;20025;-73
2022/06/11 10:30:22;;;;;;;12.88;3.08;;;;;;;25.98;36.29;102193.16;5055387;28;20104;-73
2022/06/11 10:32:48;;;;;;;16.00;3.38;;;;;;;25.67;37.21;102195.59;5037026;28;20095;-73
2022/06/11 10:35:20;;;;;;;14.45;3.10;;;;;;;25.69;38.29;102199.81;5037568;28;20027;-74
2022/06/11 10:37:58;;;;;;;12.60;2.95;;;;;;;26.40;37.25;102202.09;5055190;28;20044;-73
2022/06/11 10:40:30;;;;;;;15.00;3.20;;;;;;;26.30;36.44;102197.56;5054509;28;20086;-72
2022/06/11 10:43:22;;;;;;;13.15;3.65;;;;;;;26.65;38.19;102190.81;5054742;28;20540;-72
2022/06/11 10:45:48;;;;;;;12.45;3.25;;;;;;;27.09;35.51;102200.97;5055410;28;20020;-76
2022/06/11 10:48:20;;;;;;;13.57;3.15;;;;;;;26.93;36.86;102194.84;5038455;28;20483;-73
2022/06/11 10:50:47;;;;;;;14.68;3.30;;;;;;;24.84;38.44;102194.28;5054898;28;20127;-73
2022/06/11 10:53:21;;;;;;;16.33;3.58;;;;;;;24.62;40.25;102200.38;5036833;28;20033;-74
2022/06/11 10:56:01;;;;;;;18.45;3.63;;;;;;;25.75;37.65;102193.50;5054593;28;20024;-72
2022/06/11 10:58:33;;;;;;;13.70;3.10;;;;;;;26.71;39.52;102198.53;5036707;28;20029;-74
2022/06/11 11:01:07;;;;;;;;;;;;;;;26.63;36.76;102191.06;5055148;28;20067;-73
2022/06/11 11:03:46;;;;;;;15.50;3.13;;;;;;;26.38;39.13;102194.38;5036643;28;20291;-74
2022/06/11 11:06:26;;;;;;;14.35;2.97;;;;;;;26.95;37.66;102187.44;5054577;28;20028;-73
2022/06/11 11:08:55;;;;;;;13.45;3.25;;;;;;;25.58;38.32;102189.16;5054393;28;20108;-73
2022/06/11 11:11:21;;;;;;;15.25;3.53;;;;;;;25.94;37.27;102178.81;5036745;28;20025;-73
2022/06/11 11:13:48;;;;;;;19.08;3.70;;;;;;;24.88;39.42;102180.31;5054256;28;20104;-74
2022/06/11 11:16:15;;;;;;;15.52;3.15;;;;;;;24.87;39.80;102177.94;5054361;28;20025;-73
2022/06/11 11:18:46;;;;;;;14.02;3.15;;;;;;;26.08;39.67;102160.63;5036616;28;20040;-73
2022/06/11 11:21:37;;;;;;;17.30;3.30;;;;;;;26.19;37.79;102174.72;5036737;28;20028;-73
2022/06/11 11:24:13;;;;;;;13.13;3.30;;;;;;;25.28;39.54;102170.41;5053198;28;20029;-72
2022/06/11 11:26:47;;;;;;;16.48;3.45;;;;;;;25.33;39.61;102173.88;5054236;28;20435;-73
2022/06/11 11:29:21;;;;;;;17.50;3.60;;;;;;;25.85;39.60;102167.91;5053944;28;20025;-73
2022/06/11 11:31:57;;;;;;;18.73;3.38;;;;;;;25.82;39.56;102175.56;5053966;28;20053;-74
2022/06/11 11:34:26;;;;;;;13.48;3.05;;;;;;;25.44;40.78;102166.84;5036338;28;20117;-74
2022/06/11 11:37:31;;;;;;;18.95;3.45;;;;;;;25.10;40.74;102158.31;5036296;28;20023;-73
2022/06/11 11:40:02;;;;;;;17.88;3.47;;;;;;;25.52;41.48;102176.13;5053827;28;20036;-73
2022/06/11 11:42:36;;;;;;;12.35;2.72;;;;;;;26.45;40.59;102173.75;5054200;28;20053;-73